Time;durP1;ratioP1;P1;durP2;ratioP2;P2;SDS_P1;SDS_P2;PMS_P1;PMS_P2;Temp;Humidity;BMP_temperature;BMP_pressure;BME280_temperature;BME280_humidity;BME280_pressure;Samples;Min_cycle;Max_cycle;Signal;HPM_P1;HPM_P2
2022/05/10 00:02:14;;;;;;;10.18;4.65;;;;;;;;;;10520205;28;20059;-73
2022/05/10 00:07:15;;;;;;;18.27;4.40;;;;;;;;;;10521416;28;20260;-74
2022/05/10 00:12:17;;;;;;;13.07;4.35;;;;;;;;;;10520334;28;20070;-74
2022/05/10 00:17:26;;;;;;;11.70;4.00;;;;;;;;;;10522237;28;20438;-74
2022/05/10 00:22:29;;;;;;;10.55;4.72;;;;;;;;;;10519550;28;20066;-74
2022/05/10 00:27:31;;;;;;;10.32;4.60;;;;;;;;;;10521089;28;20403;-74
2022/05/10 00:32:33;;;;;;;10.77;4.28;;;;;;;;;;10519355;28;20132;-74
2022/05/10 00:37:36;;;;;;;8.95;4.70;;;;;;;;;;10521114;28;20119;-74
2022/05/10 00:42:45;;;;;;;10.48;4.85;;;;;;;;;;10519295;28;20060;-74
2022/05/10 00:47:55;;;;;;;13.60;4.57;;;;;;;;;;10501707;28;20047;-74
2022/05/10 00:53:18;;;;;;;10.13;4.32;;;;;;;;;;10519550;28;20047;-74
2022/05/10 00:58:34;;;;;;;9.85;4.88;;;;;;;;;;10520025;28;20040;-74
2022/05/10 01:03:41;;;;;;;10.38;4.60;;;;;;;;;;10519089;28;20041;-75
2022/05/10 01:08:49;;;;;;;11.27;4.15;;;;;;;;;;10520365;28;20040;-74
2022/05/10 01:13:59;;;;;;;12.27;3.72;;;;;;;;;;10519449;28;20059;-74
2022/05/10 01:19:00;;;;;;;9.02;4.32;;;;;;;;;;10518816;28;20048;-74
2022/05/10 01:24:05;;;;;;;14.20;3.90;;;;;;;;;;10519583;28;20127;-74
2022/05/10 01:29:10;;;;;;;8.65;4.20;;;;;;;;;;10519410;28;20438;-74
2022/05/10 01:34:15;;;;;;;11.70;4.20;;;;;;;;;;10523775;28;20479;-74
2022/05/10 01:39:20;;;;;;;10.07;4.15;;;;;;;;;;10527425;28;20047;-74
2022/05/10 01:44:40;;;;;;;10.52;3.83;;;;;;;;;;10526411;28;20055;-74
2022/05/10 01:49:41;;;;;;;;;;;;;;;;;;10525521;28;20040;-74
2022/05/10 01:55:03;;;;;;;8.55;4.00;;;;;;;;;;10526657;28;20019;-74
2022/05/10 02:00:10;;;;;;;13.02;5.68;;;;;;;;;;10519521;28;20044;-74
2022/05/10 02:05:19;;;;;;;8.07;3.83;;;;;;;;;;10484381;28;20542;-74
2022/05/10 02:10:24;;;;;;;9.70;4.38;;;;;;;;;;10486063;28;20049;-74
2022/05/10 02:15:27;;;;;;;9.85;4.55;;;;;;;;;;10527011;28;20040;-74
2022/05/10 02:20:47;;;;;;;11.45;4.25;;;;;;;;;;10525901;28;20060;-74
2022/05/10 02:25:55;;;;;;;11.60;4.70;;;;;;;;;;10526314;28;20048;-74
2022/05/10 02:30:58;;;;;;;9.50;4.28;;;;;;;;;;10524646;28;20048;-74
2022/05/10 02:36:00;;;;;;;10.77;4.68;;;;;;;;;;10525759;28;20047;-74
2022/05/10 02:41:09;;;;;;;11.85;4.90;;;;;;;;;;10523666;28;20415;-74
2022/05/10 02:46:10;;;;;;;11.27;4.80;;;;;;;;;;10524145;28;20408;-74
2022/05/10 02:51:12;;;;;;;13.05;5.03;;;;;;;;;;10524121;28;20064;-74
2022/05/10 02:56:19;;;;;;;7.20;4.15;;;;;;;;;;10524824;28;20559;-73
2022/05/10 03:01:38;;;;;;;14.63;5.50;;;;;;;;;;10523372;28;20121;-74
2022/05/10 03:06:42;;;;;;;10.65;5.15;;;;;;;;;;10524465;28;20040;-74
2022/05/10 03:11:43;;;;;;;10.32;4.97;;;;;;;;;;10522719;28;20040;-73
2022/05/10 03:16:44;;;;;;;9.90;4.72;;;;;;;;;;10522710;28;20126;-73
2022/05/10 03:21:46;;;;;;;14.38;5.30;;;;;;;;;;10523220;28;20050;-74
2022/05/10 03:26:48;;;;;;;13.68;5.20;;;;;;;;;;10523958;28;20179;-74
2022/05/10 03:31:50;;;;;;;11.13;5.82;;;;;;;;;;10522589;28;20072;-74
2022/05/10 03:36:52;;;;;;;12.68;5.97;;;;;;;;;;10523636;28;20044;-74
2022/05/10 03:41:54;;;;;;;10.75;5.75;;;;;;;;;;10522080;28;20051;-73
2022/05/10 03:46:55;;;;;;;11.18;5.85;;;;;;;;;;10522703;28;20181;-74
2022/05/10 03:51:57;;;;;;;11.27;5.88;;;;;;;;;;10520702;28;20436;-74
2022/05/10 03:56:59;;;;;;;12.40;6.22;;;;;;;;;;10521691;28;20410;-74
2022/05/10 04:02:01;;;;;;;14.27;6.18;;;;;;;;;;10503018;28;20032;-75
2022/05/10 04:07:06;;;;;;;16.73;5.95;;;;;;;;;;10523138;28;20048;-76
2022/05/10 04:12:14;;;;;;;12.38;5.85;;;;;;;;;;10486622;28;20587;-75
2022/05/10 04:17:22;;;;;;;10.30;5.82;;;;;;;;;;10523021;28;20131;-75
2022/05/10 04:22:29;;;;;;;14.65;6.60;;;;;;;;;;10520461;28;20092;-76
2022/05/10 04:27:46;;;;;;;11.15;6.63;;;;;;;;;;10514319;28;20422;-75
2022/05/10 04:32:49;;;;;;;13.52;6.93;;;;;;;;;;10520085;28;20040;-75
2022/05/10 04:37:53;;;;;;;14.30;6.80;;;;;;;;;;10521021;28;20047;-76
2022/05/10 04:42:55;;;;;;;12.07;6.65;;;;;;;;;;10485771;28;20134;-75
2022/05/10 04:47:56;;;;;;;12.50;7.07;;;;;;;;;;10521430;28;20044;-75
2022/05/10 04:52:58;;;;;;;16.05;6.95;;;;;;;;;;10520602;28;20051;-75
2022/05/10 04:57:59;;;;;;;14.80;6.95;;;;;;;;;;10521056;28;20499;-77
2022/05/10 05:03:03;;;;;;;12.35;6.90;;;;;;;;;;10519102;28;20044;-75
2022/05/10 05:08:04;;;;;;;13.48;6.90;;;;;;;;;;10526573;28;20044;-75
2022/05/10 05:13:10;;;;;;;15.85;7.13;;;;;;;;;;10534019;28;20154;-73
2022/05/10 05:18:12;;;;;;;16.27;6.97;;;;;;;;;;10534497;28;20036;-75
2022/05/10 05:23:14;;;;;;;13.15;7.28;;;;;;;;;;10531738;28;20047;-73
2022/05/10 05:28:15;;;;;;;18.60;7.53;;;;;;;;;;10519663;28;20403;-72
2022/05/10 05:33:17;;;;;;;12.68;7.85;;;;;;;;;;10530990;28;20511;-73
2022/05/10 05:38:18;;;;;;;14.80;8.77;;;;;;;;;;10531701;28;20685;-73
2022/05/10 05:43:21;;;;;;;15.30;8.48;;;;;;;;;;10532624;28;20418;-72
2022/05/10 05:48:22;;;;;;;17.75;8.15;;;;;;;;;;10534488;28;20056;-70
2022/05/10 05:53:26;;;;;;;15.13;9.15;;;;;;;;;;10513379;28;20051;-74
2022/05/10 05:58:27;;;;;;;18.10;8.80;;;;;;;;;;10531768;28;20407;-75
2022/05/10 06:03:29;;;;;;;17.90;9.10;;;;;;;;;;10517388;28;20254;-74
2022/05/10 06:08:30;;;;;;;19.02;10.32;;;;;;;;;;10531241;28;20039;-74
2022/05/10 06:13:34;;;;;;;16.25;9.55;;;;;;;;;;10532047;28;20055;-74
2022/05/10 06:18:35;;;;;;;21.80;9.77;;;;;;;;;;10529508;28;20048;-74
2022/05/10 06:23:37;;;;;;;17.40;9.45;;;;;;;;;;10519107;28;20040;-72
2022/05/10 06:28:38;;;;;;;15.50;9.60;;;;;;;;;;10524759;28;20055;-71
2022/05/10 06:33:40;;;;;;;14.73;9.65;;;;;;;;;;10524115;28;20048;-73
2022/05/10 06:38:41;;;;;;;17.75;10.05;;;;;;;;;;10505461;28;20054;-73
2022/05/10 06:43:43;;;;;;;26.02;11.02;;;;;;;;;;10524744;28;20048;-72
2022/05/10 06:48:51;;;;;;;18.50;10.27;;;;;;;;;;10511836;28;20048;-74
2022/05/10 06:53:53;;;;;;;17.33;10.10;;;;;;;;;;10524148;28;20246;-73
2022/05/10 06:58:55;;;;;;;18.40;10.70;;;;;;;;;;10523946;28;20046;-73
2022/05/10 07:03:56;;;;;;;19.10;10.48;;;;;;;;;;10521860;28;20043;-73
2022/05/10 07:08:57;;;;;;;21.48;10.77;;;;;;;;;;10518506;28;20048;-73
2022/05/10 07:13:59;;;;;;;18.23;10.00;;;;;;;;;;10518387;28;20044;-73
2022/05/10 07:19:00;;;;;;;21.98;10.43;;;;;;;;;;10519064;28;20066;-71
2022/05/10 07:24:02;;;;;;;27.58;10.23;;;;;;;;;;10522700;28;20226;-73
2022/05/10 07:29:04;;;;;;;18.60;10.43;;;;;;;;;;10521801;28;20507;-73
2022/05/10 07:34:05;;;;;;;19.05;9.73;;;;;;;;;;10521967;28;20044;-72
2022/05/10 07:39:09;;;;;;;19.13;10.55;;;;;;;;;;10521603;28;20040;-72
2022/05/10 07:44:11;;;;;;;20.27;10.20;;;;;;;;;;10522533;28;20055;-73
2022/05/10 07:49:13;;;;;;;20.13;10.73;;;;;;;;;;10504789;28;20514;-72
2022/05/10 07:54:14;;;;;;;21.98;11.25;;;;;;;;;;10515049;28;20054;-73
2022/05/10 07:59:15;;;;;;;19.85;10.35;;;;;;;;;;10522364;28;20048;-72
2022/05/10 08:04:17;;;;;;;18.83;9.90;;;;;;;;;;10520904;28;20406;-73
2022/05/10 08:09:19;;;;;;;19.58;10.73;;;;;;;;;;10522384;28;20499;-73
2022/05/10 08:14:20;;;;;;;20.67;10.13;;;;;;;;;;10520705;28;20047;-72
2022/05/10 08:19:23;;;;;;;21.52;9.95;;;;;;;;;;10520537;28;20055;-72
2022/05/10 08:24:24;;;;;;;17.42;8.90;;;;;;;;;;10520753;28;20129;-73
2022/05/10 08:29:26;;;;;;;19.35;8.13;;;;;;;;;;10520308;28;20401;-73
2022/05/10 08:34:27;;;;;;;18.40;8.18;;;;;;;;;;10515184;28;20048;-72
2022/05/10 08:39:29;;;;;;;13.70;6.82;;;;;;;;;;10514755;28;20052;-71
2022/05/10 08:44:35;;;;;;;11.77;5.65;;;;;;;;;;10519854;28;20067;-69
2022/05/10 08:49:43;;;;;;;13.10;6.07;;;;;;;;;;10514030;28;20044;-74
2022/05/10 08:54:44;;;;;;;17.63;5.63;;;;;;;;;;10522313;28;20056;-69
2022/05/10 08:59:58;;;;;;;13.65;4.88;;;;;;;;;;10521093;28;20068;-70
2022/05/10 09:05:04;;;;;;;12.50;3.90;;;;;;;;;;10518993;28;20036;-69
2022/05/10 09:10:12;;;;;;;9.50;3.22;;;;;;;;;;10521298;28;20040;-71
2022/05/10 09:15:19;;;;;;;8.93;3.83;;;;;;;;;;10521411;28;20551;-69
2022/05/10 09:20:21;;;;;;;7.90;3.75;;;;;;;;;;10520063;28;20032;-70
2022/05/10 09:25:38;;;;;;;8.30;3.45;;;;;;;;;;10521233;28;20080;-73
2022/05/10 09:30:40;;;;;;;19.73;3.78;;;;;;;;;;10505047;28;20040;-69
2022/05/10 09:35:49;;;;;;;8.35;3.50;;;;;;;;;;10520642;28;20044;-70
2022/05/10 09:40:51;;;;;;;13.25;3.72;;;;;;;;;;10519065;28;20048;-71
2022/05/10 09:46:07;;;;;;;10.30;4.18;;;;;;;;;;10519526;28;20386;-69
2022/05/10 09:51:27;;;;;;;11.43;4.47;;;;;;;;;;10516602;28;20074;-69
2022/05/10 09:56:30;;;;;;;8.38;3.70;;;;;;;;;;10523846;28;20052;-69
2022/05/10 10:01:36;;;;;;;8.55;3.45;;;;;;;;;;10526507;28;20077;-69
2022/05/10 10:06:40;;;;;;;8.45;3.78;;;;;;;;;;10514474;28;20032;-69
2022/05/10 10:11:41;;;;;;;7.78;2.97;;;;;;;;;;10526047;28;20069;-68
2022/05/10 10:16:50;;;;;;;12.88;3.00;;;;;;;;;;10526737;28;20461;-69
2022/05/10 10:21:58;;;;;;;9.98;2.45;;;;;;;;;;10526264;28;20043;-69
2022/05/10 10:27:06;;;;;;;5.65;2.45;;;;;;;;;;10527395;28;20052;-70
2022/05/10 10:32:21;;;;;;;10.23;3.53;;;;;;;;;;10523877;28;20067;-69
2022/05/10 10:37:23;;;;;;;7.35;2.42;;;;;;;;;;10527485;28;20078;-67
2022/05/10 10:42:28;;;;;;;8.35;2.67;;;;;;;;;;10525138;28;20062;-67
2022/05/10 10:47:40;;;;;;;7.32;2.60;;;;;;;;;;10525787;28;20050;-68
2022/05/10 10:52:41;;;;;;;7.72;2.58;;;;;;;;;;10525073;28;20083;-70
2022/05/10 10:57:49;;;;;;;6.45;2.72;;;;;;;;;;10507611;28;20388;-70
2022/05/10 11:02:57;;;;;;;6.40;3.00;;;;;;;;;;10524408;28;20051;-71
2022/05/10 11:08:11;;;;;;;10.15;2.97;;;;;;;;;;10524288;28;20044;-70
2022/05/10 11:13:31;;;;;;;12.02;3.47;;;;;;;;;;10524021;28;20549;-69
2022/05/10 11:18:50;;;;;;;12.85;4.82;;;;;;;;;;10522259;28;20058;-69
2022/05/10 11:24:12;;;;;;;11.00;5.00;;;;;;;;;;10519507;28;20541;-68
2022/05/10 11:29:20;;;;;;;14.10;3.60;;;;;;;;;;10515860;28;20054;-69
2022/05/10 11:34:40;;;;;;;12.63;4.47;;;;;;;;;;10519833;28;20546;-70
2022/05/10 11:39:44;;;;;;;9.30;4.97;;;;;;;;;;10522726;28;20538;-68
2022/05/10 11:45:04;;;;;;;7.65;4.30;;;;;;;;;;10522900;28;20056;-69
2022/05/10 11:50:20;;;;;;;7.22;3.90;;;;;;;;;;10523868;28;20056;-68
2022/05/10 11:55:36;;;;;;;8.43;3.20;;;;;;;;;;10523608;28;20058;-71
2022/05/10 12:00:42;;;;;;;7.95;3.17;;;;;;;;;;10517677;28;20072;-70
2022/05/10 12:05:43;;;;;;;9.02;3.25;;;;;;;;;;10522902;28;20572;-70
2022/05/10 12:10:45;;;;;;;9.18;3.33;;;;;;;;;;10522434;28;20411;-70
2022/05/10 12:21:31;;;;;;;13.02;3.35;;;;;;;;;;10522879;28;20048;-70
2022/05/10 12:26:31;;;;;;;8.63;3.40;;;;;;;;;;10522058;28;20063;-69
2022/05/10 12:31:32;;;;;;;12.00;4.10;;;;;;;;;;10521237;28;20051;-69
2022/05/10 12:36:39;;;;;;;8.15;3.67;;;;;;;;;;10522082;28;20050;-71
2022/05/10 12:41:49;;;;;;;15.70;3.42;;;;;;;;;;10521266;28;20059;-70
2022/05/10 12:47:01;;;;;;;10.80;3.67;;;;;;;;;;10522367;28;20047;-71
2022/05/10 12:52:20;;;;;;;5.90;2.85;;;;;;;;;;10520950;28;20036;-73
2022/05/10 12:57:31;;;;;;;12.82;3.53;;;;;;;;;;10522252;28;20113;-70
2022/05/10 13:02:33;;;;;;;6.78;2.70;;;;;;;;;;10520459;28;20358;-68
2022/05/10 13:07:47;;;;;;;9.25;3.50;;;;;;;;;;10521237;28;20459;-69
2022/05/10 13:12:52;;;;;;;11.55;3.22;;;;;;;;;;10514991;28;20055;-68
2022/05/10 13:17:55;;;;;;;11.27;3.15;;;;;;;;;;10521467;28;20523;-69
2022/05/10 13:23:00;;;;;;;6.38;3.10;;;;;;;;;;10520734;28;20055;-70
2022/05/10 13:28:11;;;;;;;71.10;10.68;;;;;;;;;;10522574;28;20410;-69
2022/05/10 13:33:21;;;;;;;46.92;8.57;;;;;;;;;;10522799;28;20048;-70
2022/05/10 13:38:30;;;;;;;17.10;5.32;;;;;;;;;;10529614;28;20479;-70
2022/05/10 13:43:51;;;;;;;10.98;3.10;;;;;;;;;;10529629;28;20119;-69
2022/05/10 13:49:00;;;;;;;9.40;3.00;;;;;;;;;;10524649;28;20164;-68
2022/05/10 13:54:07;;;;;;;8.07;2.90;;;;;;;;;;10529014;28;20048;-69
2022/05/10 13:59:10;;;;;;;13.65;3.03;;;;;;;;;;10529661;28;20526;-73
2022/05/10 14:04:12;;;;;;;7.72;3.17;;;;;;;;;;10528746;28;20417;-72
2022/05/10 14:09:24;;;;;;;9.20;3.17;;;;;;;;;;10529541;28;20457;-70
2022/05/10 14:14:28;;;;;;;7.60;3.22;;;;;;;;;;10528316;28;20052;-70
2022/05/10 14:19:33;;;;;;;11.18;3.45;;;;;;;;;;10528562;28;20503;-68
2022/05/10 14:24:37;;;;;;;8.95;3.60;;;;;;;;;;10528637;28;20388;-69
2022/05/10 14:29:44;;;;;;;8.25;3.15;;;;;;;;;;10526830;28;20046;-71
2022/05/10 14:35:00;;;;;;;9.80;3.65;;;;;;;;;;10527166;28;20055;-70
2022/05/10 14:40:17;;;;;;;9.50;3.65;;;;;;;;;;10526739;28;20040;-69
2022/05/10 14:45:24;;;;;;;8.50;3.70;;;;;;;;;;10527771;28;20044;-71
2022/05/10 14:50:31;;;;;;;16.50;5.32;;;;;;;;;;10526354;28;20101;-71
2022/05/10 14:55:34;;;;;;;13.45;4.22;;;;;;;;;;10527159;28;20423;-71
2022/05/10 15:00:49;;;;;;;15.68;4.90;;;;;;;;;;10510443;28;20081;-68
2022/05/10 15:05:52;;;;;;;12.10;3.88;;;;;;;;;;10524167;28;20108;-69
2022/05/10 15:10:56;;;;;;;10.02;3.95;;;;;;;;;;10511062;28;20044;-70
2022/05/10 15:15:58;;;;;;;13.68;4.28;;;;;;;;;;10527519;28;20588;-71
2022/05/10 15:21:01;;;;;;;7.25;3.75;;;;;;;;;;10527033;28;20044;-70
2022/05/10 15:26:03;;;;;;;9.90;4.28;;;;;;;;;;10528273;28;20052;-70
2022/05/10 15:31:04;;;;;;;10.88;4.25;;;;;;;;;;10508109;28;20170;-71
2022/05/10 15:36:08;;;;;;;8.57;4.20;;;;;;;;;;10516214;28;20048;-72
2022/05/10 15:41:09;;;;;;;10.15;4.30;;;;;;;;;;10517018;28;20403;-72
2022/05/10 15:46:12;;;;;;;13.20;5.70;;;;;;;;;;10524651;28;20055;-79
2022/05/10 15:51:15;;;;;;;15.02;5.82;;;;;;;;;;10501918;28;20062;-78
2022/05/10 15:56:19;;;;;;;10.90;6.35;;;;;;;;;;10523795;28;20118;-79
2022/05/10 16:01:21;;;;;;;16.02;6.65;;;;;;;;;;10523343;28;20046;-77
2022/05/10 16:06:40;;;;;;;15.73;7.63;;;;;;;;;;10517897;28;20135;-79
2022/05/10 16:11:43;;;;;;;12.90;7.07;;;;;;;;;;10505236;28;20054;-79
2022/05/10 16:16:44;;;;;;;13.35;8.20;;;;;;;;;;10512237;28;20501;-80
2022/05/10 16:21:46;;;;;;;15.93;9.25;;;;;;;;;;10521732;28;20040;-78
2022/05/10 16:32:08;;;;;;;17.98;8.25;;;;;;;;;;10516027;28;20039;-79
2022/05/10 16:37:10;;;;;;;15.27;7.40;;;;;;;;;;10503484;28;20135;-78
2022/05/10 16:42:14;;;;;;;13.77;5.07;;;;;;;;;;10521085;28;20059;-79
2022/05/10 16:47:17;;;;;;;9.65;3.35;;;;;;;;;;10520900;28;20059;-77
2022/05/10 16:52:23;;;;;;;7.30;2.60;;;;;;;;;;10520474;28;20085;-74
2022/05/10 16:57:25;;;;;;;8.52;2.55;;;;;;;;;;10514449;28;20075;-73
2022/05/10 17:02:27;;;;;;;9.25;2.60;;;;;;;;;;10520613;28;20043;-74
2022/05/10 17:07:29;;;;;;;9.43;2.92;;;;;;;;;;10507995;28;20060;-73
2022/05/10 17:12:31;;;;;;;6.13;2.30;;;;;;;;;;10520965;28;20502;-78
2022/05/10 17:17:32;;;;;;;10.57;2.50;;;;;;;;;;10510585;28;20040;-78
2022/05/10 17:22:34;;;;;;;12.10;2.50;;;;;;;;;;10519707;28;20119;-78
2022/05/10 17:27:36;;;;;;;8.63;3.28;;;;;;;;;;10515232;28;20040;-79
2022/05/10 17:32:37;;;;;;;6.05;2.22;;;;;;;;;;10514589;28;20042;-78
2022/05/10 17:37:39;;;;;;;7.25;1.92;;;;;;;;;;10513999;28;20040;-78
2022/05/10 17:42:40;;;;;;;13.48;2.33;;;;;;;;;;10509541;28;20047;-79
2022/05/10 17:47:48;;;;;;;4.70;1.85;;;;;;;;;;10518606;28;20040;-76
2022/05/10 17:52:53;;;;;;;4.43;1.58;;;;;;;;;;10516817;28;20551;-77
2022/05/10 17:57:54;;;;;;;5.82;1.48;;;;;;;;;;10517653;28;20051;-77
2022/05/10 18:02:57;;;;;;;4.03;1.40;;;;;;;;;;10517398;28;20047;-77
2022/05/10 18:08:02;;;;;;;3.72;1.10;;;;;;;;;;10513018;28;20051;-77
2022/05/10 18:13:04;;;;;;;4.15;1.30;;;;;;;;;;10500483;28;20180;-77
2022/05/10 18:18:06;;;;;;;8.65;1.77;;;;;;;;;;10524593;28;20422;-77
2022/05/10 18:23:08;;;;;;;4.72;1.60;;;;;;;;;;10526572;28;20658;-77
2022/05/10 18:28:10;;;;;;;8.65;1.70;;;;;;;;;;10520485;28;20410;-77
2022/05/10 18:33:12;;;;;;;6.25;1.60;;;;;;;;;;10528720;28;20036;-77
2022/05/10 18:38:13;;;;;;;5.45;1.80;;;;;;;;;;10529217;28;20310;-78
2022/05/10 18:43:15;;;;;;;4.70;1.65;;;;;;;;;;10512544;28;20059;-78
2022/05/10 18:48:16;;;;;;;3.80;1.60;;;;;;;;;;10527920;28;20048;-78
2022/05/10 18:53:18;;;;;;;5.07;1.60;;;;;;;;;;10514490;28;20325;-78
2022/05/10 18:58:19;;;;;;;4.47;1.50;;;;;;;;;;10527706;28;20052;-78
2022/05/10 19:03:21;;;;;;;5.93;1.70;;;;;;;;;;10528435;28;20040;-79
2022/05/10 19:08:22;;;;;;;5.97;1.58;;;;;;;;;;10527156;28;20413;-78
2022/05/10 19:13:24;;;;;;;3.78;1.52;;;;;;;;;;10527181;28;20130;-78
2022/05/10 19:18:25;;;;;;;6.53;1.67;;;;;;;;;;10523746;28;20056;-78
2022/05/10 19:23:27;;;;;;;4.78;1.40;;;;;;;;;;10537045;28;20422;-79
2022/05/10 19:28:28;;;;;;;5.55;1.40;;;;;;;;;;10531729;28;20048;-80
2022/05/10 19:33:30;;;;;;;6.93;1.98;;;;;;;;;;10523303;28;20139;-79
2022/05/10 19:38:35;;;;;;;7.60;1.63;;;;;;;;;;10537339;28;20554;-80
2022/05/10 19:43:41;;;;;;;5.78;1.63;;;;;;;;;;10536390;28;20217;-80
2022/05/10 19:48:43;;;;;;;5.43;1.63;;;;;;;;;;10537500;22;20047;-80
2022/05/10 19:53:45;;;;;;;3.47;1.30;;;;;;;;;;10428672;28;20049;-79
2022/05/10 19:58:47;;;;;;;3.65;1.42;;;;;;;;;;10430203;28;20041;-80
2022/05/10 20:09:10;;;;;;;4.45;1.90;;;;;;;;;;10383379;28;20069;-79
2022/05/10 20:14:13;;;;;;;5.05;1.63;;;;;;;;;;10386223;28;20061;-79
2022/05/10 20:19:14;;;;;;;3.95;1.80;;;;;;;;;;10385889;28;20129;-79
2022/05/10 20:24:16;;;;;;;4.90;1.70;;;;;;;;;;10378225;28;20501;-79
2022/05/10 20:29:17;;;;;;;5.63;1.85;;;;;;;;;;10366436;28;20132;-78
2022/05/10 20:34:19;;;;;;;3.42;1.80;;;;;;;;;;10399318;28;20077;-79
2022/05/10 20:39:21;;;;;;;7.07;1.67;;;;;;;;;;10383400;28;20393;-78
2022/05/10 20:44:22;;;;;;;6.28;1.80;;;;;;;;;;10364202;28;20061;-78
2022/05/10 20:49:24;;;;;;;4.15;1.90;;;;;;;;;;10384779;28;20041;-78
2022/05/10 20:54:26;;;;;;;3.47;1.80;;;;;;;;;;10406165;28;20045;-79
2022/05/10 20:59:27;;;;;;;3.70;1.67;;;;;;;;;;10384077;28;20072;-79
2022/05/10 21:04:29;;;;;;;6.00;2.10;;;;;;;;;;10370828;28;20103;-79
2022/05/10 21:09:30;;;;;;;3.20;1.63;;;;;;;;;;10359468;28;20091;-80
2022/05/10 21:14:32;;;;;;;4.22;1.70;;;;;;;;;;10386305;28;20065;-79
2022/05/10 21:19:52;;;;;;;4.93;1.80;;;;;;;;;;10382204;28;20054;-79
2022/05/10 21:25:12;;;;;;;5.28;1.80;;;;;;;;;;10403433;28;20049;-78
2022/05/10 21:35:46;;;;;;;5.32;1.55;;;;;;;;;;10390233;28;20049;-78
2022/05/10 21:40:55;;;;;;;6.68;3.17;;;;;;;;;;10387277;28;20041;-79
2022/05/10 21:45:57;;;;;;;5.65;2.00;;;;;;;;;;10381936;28;20046;-79
2022/05/10 21:51:00;;;;;;;5.47;1.63;;;;;;;;;;10380525;28;20103;-79
2022/05/10 21:56:01;;;;;;;7.25;1.60;;;;;;;;;;10379958;28;20061;-78
2022/05/10 22:01:03;;;;;;;5.63;1.40;;;;;;;;;;10395878;28;20049;-79
2022/05/10 22:06:05;;;;;;;5.47;1.88;;;;;;;;;;10391408;28;20384;-79
2022/05/10 22:11:06;;;;;;;5.50;1.73;;;;;;;;;;10383384;28;20038;-79
2022/05/10 22:16:08;;;;;;;4.45;1.40;;;;;;;;;;10391812;28;20128;-79
2022/05/10 22:21:09;;;;;;;5.15;1.95;;;;;;;;;;10385642;28;20049;-78
2022/05/10 22:26:11;;;;;;;5.68;1.70;;;;;;;;;;10396638;28;20045;-77
2022/05/10 22:31:15;;;;;;;6.13;1.70;;;;;;;;;;10389448;28;20619;-79
2022/05/10 22:36:17;;;;;;;4.55;1.60;;;;;;;;;;10390415;28;20053;-78
2022/05/10 22:41:19;;;;;;;5.10;1.83;;;;;;;;;;10395934;28;20083;-78
2022/05/10 22:46:21;;;;;;;5.50;1.60;;;;;;;;;;10362600;28;20053;-78
2022/05/10 22:51:22;;;;;;;5.28;1.60;;;;;;;;;;10383782;28;20587;-78
2022/05/10 22:56:24;;;;;;;5.15;1.65;;;;;;;;;;10369423;28;20077;-77
2022/05/10 23:01:25;;;;;;;8.48;1.60;;;;;;;;;;10358919;28;20038;-78
2022/05/10 23:06:27;;;;;;;3.65;1.50;;;;;;;;;;10376040;28;20045;-78
2022/05/10 23:11:29;;;;;;;4.82;1.60;;;;;;;;;;10399856;28;20050;-78
2022/05/10 23:16:31;;;;;;;6.13;1.80;;;;;;;;;;10397230;28;20073;-79
2022/05/10 23:21:33;;;;;;;7.15;1.52;;;;;;;;;;10386424;28;20046;-77
2022/05/10 23:26:35;;;;;;;12.45;2.75;;;;;;;;;;10366227;28;20191;-78
2022/05/10 23:31:36;;;;;;;6.75;1.77;;;;;;;;;;10380748;28;20132;-78
2022/05/10 23:36:39;;;;;;;5.00;2.10;;;;;;;;;;10393780;28;20049;-78
2022/05/10 23:41:40;;;;;;;3.55;1.73;;;;;;;;;;10360120;28;20078;-78
2022/05/10 23:46:43;;;;;;;3.65;1.85;;;;;;;;;;10389606;28;20046;-78
2022/05/10 23:51:46;;;;;;;5.80;2.03;;;;;;;;;;10367019;28;20276;-78
2022/05/10 23:56:48;;;;;;;7.80;2.47;;;;;;;;;;10382017;28;20097;-78
